Terminal Aerodrome Forecast
Issued by NWS

Home | Current Version | Previous Version | Text Only | Print | Product List | Glossary On
Versions: 1 2 3 4 5 6 7 8 9 10 11 12 13 14 15 16 17 18 19 20
042
FTUS43 KIND 020520
TAFBMG
TAF
KBMG 020520Z 0206/0306 30008KT P6SM FEW023 BKN045
     FM020900 28006KT 3SM BR OVC005
      TEMPO 0210/0213 1/2SM FG VV001
     FM021500 28005KT P6SM VCSH OVC012
     FM022100 31005KT P6SM VCSH OVC035
     FM030300 34005KT 4SM BR VCSH OVC025=

USA.gov is the U.S. government's official web portal to all federal, state and local government web resources and services.